createdAt,value
2019-03-05T00:07:18.441Z,7.90
2019-03-05T00:22:22.254Z,7.60
2019-03-05T00:37:32.081Z,7.30
2019-03-05T00:52:47.677Z,7.10
2019-03-05T01:07:51.826Z,7.00
2019-03-05T01:22:55.805Z,6.90
2019-03-05T01:37:59.638Z,6.80
2019-03-05T01:53:03.604Z,6.70
2019-03-05T02:08:07.744Z,6.70
2019-03-05T02:23:14.511Z,6.70
2019-03-05T02:38:33.310Z,6.80
2019-03-05T02:54:05.717Z,7.00
2019-03-05T03:09:27.605Z,6.90
2019-03-05T03:24:31.400Z,7.00
2019-03-05T03:39:35.204Z,6.90
2019-03-05T03:54:39.070Z,6.90
2019-03-05T04:09:42.872Z,6.70
2019-03-05T04:24:46.656Z,6.30
2019-03-05T04:39:50.487Z,6.20
2019-03-05T04:54:54.336Z,6.10
2019-03-05T05:09:58.072Z,6.10
2019-03-05T05:25:01.835Z,6.20
2019-03-05T05:40:35.332Z,6.10
2019-03-05T05:55:40.031Z,6.00
2019-03-05T06:10:44.010Z,6.00
2019-03-05T06:25:47.767Z,6.20
2019-03-05T06:40:51.417Z,6.50
2019-03-05T06:55:55.406Z,7.00
2019-03-05T07:11:04.882Z,7.30
2019-03-05T07:26:08.723Z,7.50
2019-03-05T07:41:12.480Z,8.00
2019-03-05T07:56:16.249Z,9.50
2019-03-05T08:11:20.119Z,9.20
2019-03-05T08:26:23.933Z,8.90
2019-03-05T08:41:27.755Z,9.10
2019-03-05T08:56:31.590Z,9.30
2019-03-05T09:11:35.447Z,9.60
2019-03-05T09:26:39.250Z,10.30
2019-03-05T09:41:43.124Z,10.80
2019-03-05T09:56:46.837Z,10.20
2019-03-05T10:11:56.550Z,10.10
2019-03-05T10:26:56.338Z,10.50
2019-03-05T10:42:00.867Z,10.10
2019-03-05T10:57:04.643Z,10.10
2019-03-05T11:12:08.779Z,10.30
2019-03-05T11:27:12.701Z,9.60
2019-03-05T11:42:16.676Z,11.10
2019-03-05T11:57:20.631Z,10.40
2019-03-05T12:12:24.443Z,9.70
2019-03-05T12:27:28.198Z,9.60
2019-03-05T12:42:32.058Z,10.20
2019-03-05T12:57:35.840Z,10.40
2019-03-05T13:12:40.190Z,10.60
2019-03-05T13:27:44.289Z,9.50
2019-03-05T13:42:48.437Z,9.00
2019-03-05T13:58:13.141Z,10.10
2019-03-05T14:13:17.031Z,10.60
2019-03-05T14:28:20.993Z,10.70
2019-03-05T14:43:24.990Z,10.10
2019-03-05T14:58:28.694Z,9.30
2019-03-05T15:13:32.433Z,8.20
2019-03-05T15:28:36.226Z,7.20
2019-03-05T15:43:44.201Z,6.40
2019-03-05T15:58:45.420Z,6.30
2019-03-05T16:14:08.661Z,6.20
2019-03-05T16:29:16.170Z,6.00
2019-03-05T16:44:19.712Z,5.90
2019-03-05T16:59:41.445Z,5.80
2019-03-05T17:14:46.127Z,5.80
2019-03-05T17:29:49.979Z,5.50
2019-03-05T17:44:53.931Z,5.70
2019-03-05T17:59:57.798Z,5.50
2019-03-05T18:15:01.927Z,5.20
2019-03-05T18:30:11.338Z,5.30
2019-03-05T19:11:43.983Z,5.20
2019-03-05T19:41:55.801Z,5.20
2019-03-05T20:11:53.343Z,5.00
